sensor_id;sensor_type;location;lat;lon;timestamp;temperature;humidity
10443;DHT22;5269;51.146;16.986;2023-04-06T00:04:10;-1.50;99.90
10443;DHT22;5269;51.146;16.986;2023-04-06T00:09:26;-1.60;99.90
10443;DHT22;5269;51.146;16.986;2023-04-06T00:11:53;-1.60;99.90
10443;DHT22;5269;51.146;16.986;2023-04-06T00:14:49;-1.60;99.90
10443;DHT22;5269;51.146;16.986;2023-04-06T00:45:53;-1.80;99.90
10443;DHT22;5269;51.146;16.986;2023-04-06T00:48:21;-2.00;99.90
10443;DHT22;5269;51.146;16.986;2023-04-06T00:50:48;-2.10;99.90
10443;DHT22;5269;51.146;16.986;2023-04-06T00:53:15;-2.10;99.90
10443;DHT22;5269;51.146;16.986;2023-04-06T00:55:47;-2.20;99.90
10443;DHT22;5269;51.146;16.986;2023-04-06T01:02:08;-2.30;99.90
10443;DHT22;5269;51.146;16.986;2023-04-06T01:07:57;-2.10;99.90
10443;DHT22;5269;51.146;16.986;2023-04-06T01:13:44;-2.10;99.90
10443;DHT22;5269;51.146;16.986;2023-04-06T01:16:11;-2.20;99.90
10443;DHT22;5269;51.146;16.986;2023-04-06T01:18:40;-2.20;99.90
10443;DHT22;5269;51.146;16.986;2023-04-06T01:21:08;-2.20;99.90
10443;DHT22;5269;51.146;16.986;2023-04-06T01:23:43;-2.20;99.90
10443;DHT22;5269;51.146;16.986;2023-04-06T01:26:10;-2.20;99.90
10443;DHT22;5269;51.146;16.986;2023-04-06T01:28:37;-2.40;99.90
10443;DHT22;5269;51.146;16.986;2023-04-06T01:31:05;-2.40;99.90
10443;DHT22;5269;51.146;16.986;2023-04-06T01:33:33;-2.30;99.90
10443;DHT22;5269;51.146;16.986;2023-04-06T01:36:00;-2.30;99.90
10443;DHT22;5269;51.146;16.986;2023-04-06T01:38:29;-2.40;99.90
10443;DHT22;5269;51.146;16.986;2023-04-06T01:40:58;-2.30;99.90
10443;DHT22;5269;51.146;16.986;2023-04-06T01:43:25;-2.40;99.90
10443;DHT22;5269;51.146;16.986;2023-04-06T01:45:52;-2.40;99.90
10443;DHT22;5269;51.146;16.986;2023-04-06T01:48:19;-2.40;99.90
10443;DHT22;5269;51.146;16.986;2023-04-06T01:50:46;-2.50;99.90
10443;DHT22;5269;51.146;16.986;2023-04-06T01:53:13;-2.50;99.90
10443;DHT22;5269;51.146;16.986;2023-04-06T01:55:41;-2.30;99.90
10443;DHT22;5269;51.146;16.986;2023-04-06T01:58:09;-2.30;99.90
10443;DHT22;5269;51.146;16.986;2023-04-06T02:00:36;-2.40;99.90
10443;DHT22;5269;51.146;16.986;2023-04-06T02:03:03;-2.40;99.90
10443;DHT22;5269;51.146;16.986;2023-04-06T02:05:31;-2.40;99.90
10443;DHT22;5269;51.146;16.986;2023-04-06T02:08:03;-2.40;99.90
10443;DHT22;5269;51.146;16.986;2023-04-06T02:10:30;-2.40;99.90
10443;DHT22;5269;51.146;16.986;2023-04-06T02:12:57;-2.50;99.90
10443;DHT22;5269;51.146;16.986;2023-04-06T02:15:26;-2.50;99.90
10443;DHT22;5269;51.146;16.986;2023-04-06T02:17:53;-2.50;99.90
10443;DHT22;5269;51.146;16.986;2023-04-06T02:20:21;-2.60;99.90
10443;DHT22;5269;51.146;16.986;2023-04-06T02:22:47;-2.60;99.90
10443;DHT22;5269;51.146;16.986;2023-04-06T02:25:15;-2.70;99.90
10443;DHT22;5269;51.146;16.986;2023-04-06T02:27:42;-2.70;99.90
10443;DHT22;5269;51.146;16.986;2023-04-06T02:30:10;-2.70;99.90
10443;DHT22;5269;51.146;16.986;2023-04-06T02:32:39;-2.70;99.90
10443;DHT22;5269;51.146;16.986;2023-04-06T02:35:08;-2.80;99.90
10443;DHT22;5269;51.146;16.986;2023-04-06T02:37:35;-2.90;99.90
10443;DHT22;5269;51.146;16.986;2023-04-06T02:40:32;-2.90;99.90
10443;DHT22;5269;51.146;16.986;2023-04-06T02:42:59;-2.80;99.90
10443;DHT22;5269;51.146;16.986;2023-04-06T02:45:32;-2.80;99.90
10443;DHT22;5269;51.146;16.986;2023-04-06T02:48:00;-2.80;99.90
10443;DHT22;5269;51.146;16.986;2023-04-06T02:50:27;-2.80;99.90
10443;DHT22;5269;51.146;16.986;2023-04-06T02:52:54;-2.80;99.90
10443;DHT22;5269;51.146;16.986;2023-04-06T02:55:21;-2.80;99.90
10443;DHT22;5269;51.146;16.986;2023-04-06T02:57:48;-2.80;99.90
10443;DHT22;5269;51.146;16.986;2023-04-06T03:00:15;-2.70;99.90
10443;DHT22;5269;51.146;16.986;2023-04-06T03:02:42;-2.70;99.90
10443;DHT22;5269;51.146;16.986;2023-04-06T03:05:11;-2.70;99.90
10443;DHT22;5269;51.146;16.986;2023-04-06T03:07:38;-2.70;99.90
10443;DHT22;5269;51.146;16.986;2023-04-06T03:10:06;-2.80;99.90
10443;DHT22;5269;51.146;16.986;2023-04-06T03:12:33;-2.80;99.90
10443;DHT22;5269;51.146;16.986;2023-04-06T03:15:00;-2.80;99.90
10443;DHT22;5269;51.146;16.986;2023-04-06T03:17:27;-2.80;99.90
10443;DHT22;5269;51.146;16.986;2023-04-06T03:19:54;-2.90;99.90
10443;DHT22;5269;51.146;16.986;2023-04-06T03:22:22;-2.90;99.90
10443;DHT22;5269;51.146;16.986;2023-04-06T03:24:49;-3.00;99.90
10443;DHT22;5269;51.146;16.986;2023-04-06T03:27:16;-3.00;99.90
10443;DHT22;5269;51.146;16.986;2023-04-06T03:29:47;-3.00;99.90
10443;DHT22;5269;51.146;16.986;2023-04-06T03:32:14;-2.90;99.90
10443;DHT22;5269;51.146;16.986;2023-04-06T03:41:09;-3.00;99.90
10443;DHT22;5269;51.146;16.986;2023-04-06T03:43:36;-3.00;99.90
10443;DHT22;5269;51.146;16.986;2023-04-06T03:46:03;-3.10;99.90
10443;DHT22;5269;51.146;16.986;2023-04-06T03:48:30;-3.00;99.90
10443;DHT22;5269;51.146;16.986;2023-04-06T03:51:00;-3.00;99.90
10443;DHT22;5269;51.146;16.986;2023-04-06T03:56:30;-3.10;99.90
10443;DHT22;5269;51.146;16.986;2023-04-06T03:59:03;-3.10;99.90
10443;DHT22;5269;51.146;16.986;2023-04-06T04:01:30;-3.10;99.90
10443;DHT22;5269;51.146;16.986;2023-04-06T04:03:57;-3.10;99.90
10443;DHT22;5269;51.146;16.986;2023-04-06T04:06:25;-3.00;99.90
10443;DHT22;5269;51.146;16.986;2023-04-06T04:08:52;-3.00;99.90
10443;DHT22;5269;51.146;16.986;2023-04-06T04:11:19;-3.00;99.90
10443;DHT22;5269;51.146;16.986;2023-04-06T04:13:54;-3.00;99.90
10443;DHT22;5269;51.146;16.986;2023-04-06T04:16:21;-3.00;99.90
10443;DHT22;5269;51.146;16.986;2023-04-06T04:22:41;-3.00;99.90
10443;DHT22;5269;51.146;16.986;2023-04-06T04:25:09;-3.00;99.90
10443;DHT22;5269;51.146;16.986;2023-04-06T04:27:43;-2.90;99.90
10443;DHT22;5269;51.146;16.986;2023-04-06T04:30:12;-2.90;99.90
10443;DHT22;5269;51.146;16.986;2023-04-06T04:32:40;-2.90;99.90
10443;DHT22;5269;51.146;16.986;2023-04-06T04:35:08;-2.90;99.90
10443;DHT22;5269;51.146;16.986;2023-04-06T04:37:35;-2.80;99.90
10443;DHT22;5269;51.146;16.986;2023-04-06T04:40:02;-2.80;99.90
10443;DHT22;5269;51.146;16.986;2023-04-06T04:42:29;-2.80;99.90
10443;DHT22;5269;51.146;16.986;2023-04-06T04:44:56;-2.90;99.90
10443;DHT22;5269;51.146;16.986;2023-04-06T04:47:25;-2.80;99.90
10443;DHT22;5269;51.146;16.986;2023-04-06T04:49:52;-2.80;99.90
10443;DHT22;5269;51.146;16.986;2023-04-06T04:52:19;-2.80;99.90
10443;DHT22;5269;51.146;16.986;2023-04-06T04:54:46;-2.80;99.90
10443;DHT22;5269;51.146;16.986;2023-04-06T04:57:13;-2.80;99.90
10443;DHT22;5269;51.146;16.986;2023-04-06T04:59:40;-2.70;99.90
10443;DHT22;5269;51.146;16.986;2023-04-06T05:02:07;-2.60;99.90
10443;DHT22;5269;51.146;16.986;2023-04-06T05:04:36;-2.60;99.90
10443;DHT22;5269;51.146;16.986;2023-04-06T05:07:04;-2.60;99.90
10443;DHT22;5269;51.146;16.986;2023-04-06T05:09:31;-2.50;99.90
10443;DHT22;5269;51.146;16.986;2023-04-06T05:11:58;-2.40;99.90
10443;DHT22;5269;51.146;16.986;2023-04-06T05:14:25;-2.30;99.90
10443;DHT22;5269;51.146;16.986;2023-04-06T05:16:53;-2.30;99.90
10443;DHT22;5269;51.146;16.986;2023-04-06T05:19:22;-2.20;99.90
10443;DHT22;5269;51.146;16.986;2023-04-06T05:21:57;-2.10;99.90
10443;DHT22;5269;51.146;16.986;2023-04-06T05:24:24;-2.00;99.90
10443;DHT22;5269;51.146;16.986;2023-04-06T05:26:51;-1.90;99.90
10443;DHT22;5269;51.146;16.986;2023-04-06T05:29:19;-1.80;99.90
10443;DHT22;5269;51.146;16.986;2023-04-06T05:31:53;-1.80;99.90
10443;DHT22;5269;51.146;16.986;2023-04-06T05:34:24;-1.60;99.90
10443;DHT22;5269;51.146;16.986;2023-04-06T05:43:44;-1.30;99.90
10443;DHT22;5269;51.146;16.986;2023-04-06T05:46:12;-1.10;99.90
10443;DHT22;5269;51.146;16.986;2023-04-06T05:48:40;-0.90;99.90
10443;DHT22;5269;51.146;16.986;2023-04-06T05:51:07;-0.90;99.90
10443;DHT22;5269;51.146;16.986;2023-04-06T05:53:35;-0.70;99.90
10443;DHT22;5269;51.146;16.986;2023-04-06T05:56:02;-0.60;99.90
10443;DHT22;5269;51.146;16.986;2023-04-06T05:58:30;-0.50;99.90
10443;DHT22;5269;51.146;16.986;2023-04-06T06:00:58;-0.50;99.90
10443;DHT22;5269;51.146;16.986;2023-04-06T06:03:26;-0.40;99.90
10443;DHT22;5269;51.146;16.986;2023-04-06T06:05:53;-0.30;99.90
10443;DHT22;5269;51.146;16.986;2023-04-06T06:08:20;-0.20;99.90
10443;DHT22;5269;51.146;16.986;2023-04-06T06:10:47;-0.10;99.90
10443;DHT22;5269;51.146;16.986;2023-04-06T06:13:17;0.00;99.90
10443;DHT22;5269;51.146;16.986;2023-04-06T06:15:44;0.00;99.90
10443;DHT22;5269;51.146;16.986;2023-04-06T06:18:12;0.20;99.90
10443;DHT22;5269;51.146;16.986;2023-04-06T06:20:39;0.30;99.90
10443;DHT22;5269;51.146;16.986;2023-04-06T06:23:07;0.40;99.90
10443;DHT22;5269;51.146;16.986;2023-04-06T06:25:34;0.50;99.90
10443;DHT22;5269;51.146;16.986;2023-04-06T06:28:03;0.70;99.90
10443;DHT22;5269;51.146;16.986;2023-04-06T06:30:30;0.80;99.90
10443;DHT22;5269;51.146;16.986;2023-04-06T06:33:04;0.80;99.90
10443;DHT22;5269;51.146;16.986;2023-04-06T06:35:35;1.00;99.90
10443;DHT22;5269;51.146;16.986;2023-04-06T06:45:09;1.20;99.90
10443;DHT22;5269;51.146;16.986;2023-04-06T06:47:37;1.40;99.90
10443;DHT22;5269;51.146;16.986;2023-04-06T06:50:05;1.40;99.90
10443;DHT22;5269;51.146;16.986;2023-04-06T06:52:35;1.50;99.90
10443;DHT22;5269;51.146;16.986;2023-04-06T06:55:02;1.60;99.90
10443;DHT22;5269;51.146;16.986;2023-04-06T06:57:29;1.70;99.90
10443;DHT22;5269;51.146;16.986;2023-04-06T06:59:56;1.90;99.90
10443;DHT22;5269;51.146;16.986;2023-04-06T07:02:26;2.00;99.90
10443;DHT22;5269;51.146;16.986;2023-04-06T07:04:53;2.10;3.80
10443;DHT22;5269;51.146;16.986;2023-04-06T07:07:20;2.20;1.00
10443;DHT22;5269;51.146;16.986;2023-04-06T07:09:48;2.10;1.00
10443;DHT22;5269;51.146;16.986;2023-04-06T07:12:16;2.10;99.90
10443;DHT22;5269;51.146;16.986;2023-04-06T07:14:43;2.10;99.90
10443;DHT22;5269;51.146;16.986;2023-04-06T07:17:12;2.20;99.90
10443;DHT22;5269;51.146;16.986;2023-04-06T07:19:39;2.30;99.90
10443;DHT22;5269;51.146;16.986;2023-04-06T07:22:08;2.60;99.90
10443;DHT22;5269;51.146;16.986;2023-04-06T07:24:37;2.80;99.90
10443;DHT22;5269;51.146;16.986;2023-04-06T07:27:05;3.00;99.90
10443;DHT22;5269;51.146;16.986;2023-04-06T07:29:33;3.00;1.00
10443;DHT22;5269;51.146;16.986;2023-04-06T07:32:04;3.20;1.00
10443;DHT22;5269;51.146;16.986;2023-04-06T07:34:31;3.20;1.00
10443;DHT22;5269;51.146;16.986;2023-04-06T07:36:59;3.30;1.00
10443;DHT22;5269;51.146;16.986;2023-04-06T07:39:26;3.30;1.00
10443;DHT22;5269;51.146;16.986;2023-04-06T07:41:53;3.60;99.90
10443;DHT22;5269;51.146;16.986;2023-04-06T07:44:22;3.70;99.90
10443;DHT22;5269;51.146;16.986;2023-04-06T07:46:49;3.90;1.00
10443;DHT22;5269;51.146;16.986;2023-04-06T07:49:16;3.90;1.00
10443;DHT22;5269;51.146;16.986;2023-04-06T07:51:43;4.00;1.00
10443;DHT22;5269;51.146;16.986;2023-04-06T07:54:10;4.00;1.00
10443;DHT22;5269;51.146;16.986;2023-04-06T07:56:42;4.20;1.00
10443;DHT22;5269;51.146;16.986;2023-04-06T07:59:10;4.20;99.90
10443;DHT22;5269;51.146;16.986;2023-04-06T08:01:46;4.30;99.90
10443;DHT22;5269;51.146;16.986;2023-04-06T08:04:13;4.50;99.90
10443;DHT22;5269;51.146;16.986;2023-04-06T08:06:40;4.60;87.30
10443;DHT22;5269;51.146;16.986;2023-04-06T08:09:07;4.50;1.00
10443;DHT22;5269;51.146;16.986;2023-04-06T08:11:37;4.60;1.00
10443;DHT22;5269;51.146;16.986;2023-04-06T08:14:07;4.70;1.00
10443;DHT22;5269;51.146;16.986;2023-04-06T08:16:34;4.90;1.00
10443;DHT22;5269;51.146;16.986;2023-04-06T08:19:03;4.90;1.00
10443;DHT22;5269;51.146;16.986;2023-04-06T08:21:30;5.10;1.00
10443;DHT22;5269;51.146;16.986;2023-04-06T08:23:57;4.90;1.00
10443;DHT22;5269;51.146;16.986;2023-04-06T08:26:24;4.90;1.00
10443;DHT22;5269;51.146;16.986;2023-04-06T08:28:51;5.20;1.00
10443;DHT22;5269;51.146;16.986;2023-04-06T08:31:18;5.30;1.00
10443;DHT22;5269;51.146;16.986;2023-04-06T08:33:45;5.30;1.00
10443;DHT22;5269;51.146;16.986;2023-04-06T08:36:20;5.20;1.00
10443;DHT22;5269;51.146;16.986;2023-04-06T08:38:50;5.00;1.00
10443;DHT22;5269;51.146;16.986;2023-04-06T08:41:18;5.20;1.00
10443;DHT22;5269;51.146;16.986;2023-04-06T08:43:47;5.40;1.00
10443;DHT22;5269;51.146;16.986;2023-04-06T08:46:14;5.50;1.00
10443;DHT22;5269;51.146;16.986;2023-04-06T08:48:43;5.70;1.00
10443;DHT22;5269;51.146;16.986;2023-04-06T08:51:11;5.60;1.00
10443;DHT22;5269;51.146;16.986;2023-04-06T08:53:41;5.60;1.00
10443;DHT22;5269;51.146;16.986;2023-04-06T08:56:10;5.90;1.00
10443;DHT22;5269;51.146;16.986;2023-04-06T08:58:42;6.00;1.00
10443;DHT22;5269;51.146;16.986;2023-04-06T09:01:13;6.00;1.00
10443;DHT22;5269;51.146;16.986;2023-04-06T09:03:43;6.00;1.00
10443;DHT22;5269;51.146;16.986;2023-04-06T09:06:11;6.20;1.00
10443;DHT22;5269;51.146;16.986;2023-04-06T09:08:41;6.10;1.00
10443;DHT22;5269;51.146;16.986;2023-04-06T09:11:09;6.10;1.00
10443;DHT22;5269;51.146;16.986;2023-04-06T09:13:47;6.00;1.00
10443;DHT22;5269;51.146;16.986;2023-04-06T09:16:14;5.80;1.00
10443;DHT22;5269;51.146;16.986;2023-04-06T09:18:41;5.90;1.00
10443;DHT22;5269;51.146;16.986;2023-04-06T09:21:09;6.00;1.00
10443;DHT22;5269;51.146;16.986;2023-04-06T09:23:37;6.10;1.00
10443;DHT22;5269;51.146;16.986;2023-04-06T09:26:08;6.20;1.00
10443;DHT22;5269;51.146;16.986;2023-04-06T09:28:45;6.30;1.00
10443;DHT22;5269;51.146;16.986;2023-04-06T09:31:14;6.20;1.00
10443;DHT22;5269;51.146;16.986;2023-04-06T09:33:46;6.20;1.00
10443;DHT22;5269;51.146;16.986;2023-04-06T09:36:29;6.40;1.00
10443;DHT22;5269;51.146;16.986;2023-04-06T09:39:28;6.10;1.00
10443;DHT22;5269;51.146;16.986;2023-04-06T09:42:12;6.40;1.00
10443;DHT22;5269;51.146;16.986;2023-04-06T09:47:57;6.40;1.00
10443;DHT22;5269;51.146;16.986;2023-04-06T09:50:25;5.90;1.00
10443;DHT22;5269;51.146;16.986;2023-04-06T09:52:54;5.90;1.00
10443;DHT22;5269;51.146;16.986;2023-04-06T09:55:28;6.10;1.00
10443;DHT22;5269;51.146;16.986;2023-04-06T09:58:10;6.20;1.00
10443;DHT22;5269;51.146;16.986;2023-04-06T10:00:57;6.30;1.00
10443;DHT22;5269;51.146;16.986;2023-04-06T10:03:32;6.30;1.00
10443;DHT22;5269;51.146;16.986;2023-04-06T10:06:05;6.20;1.00
10443;DHT22;5269;51.146;16.986;2023-04-06T10:08:35;6.30;1.00
10443;DHT22;5269;51.146;16.986;2023-04-06T10:11:07;6.50;1.00
10443;DHT22;5269;51.146;16.986;2023-04-06T10:13:44;6.60;1.00
10443;DHT22;5269;51.146;16.986;2023-04-06T10:16:25;6.60;1.00
10443;DHT22;5269;51.146;16.986;2023-04-06T10:19:01;6.60;1.00
10443;DHT22;5269;51.146;16.986;2023-04-06T10:21:32;6.40;1.00
10443;DHT22;5269;51.146;16.986;2023-04-06T10:24:09;6.60;1.00
10443;DHT22;5269;51.146;16.986;2023-04-06T10:26:43;6.90;1.00
10443;DHT22;5269;51.146;16.986;2023-04-06T10:29:23;6.70;1.00
10443;DHT22;5269;51.146;16.986;2023-04-06T10:31:51;6.50;1.00
10443;DHT22;5269;51.146;16.986;2023-04-06T10:34:18;6.20;1.00
10443;DHT22;5269;51.146;16.986;2023-04-06T10:36:45;6.10;1.00
10443;DHT22;5269;51.146;16.986;2023-04-06T10:39:12;6.30;1.00
10443;DHT22;5269;51.146;16.986;2023-04-06T10:41:44;6.70;1.00
10443;DHT22;5269;51.146;16.986;2023-04-06T10:44:17;7.00;1.00
10443;DHT22;5269;51.146;16.986;2023-04-06T10:46:55;7.30;1.00
10443;DHT22;5269;51.146;16.986;2023-04-06T10:49:24;7.10;1.00
10443;DHT22;5269;51.146;16.986;2023-04-06T10:51:53;6.90;1.00
10443;DHT22;5269;51.146;16.986;2023-04-06T10:54:21;7.30;1.00
10443;DHT22;5269;51.146;16.986;2023-04-06T10:56:50;7.30;1.00
10443;DHT22;5269;51.146;16.986;2023-04-06T10:59:19;7.20;1.00
10443;DHT22;5269;51.146;16.986;2023-04-06T11:01:50;7.20;1.00
10443;DHT22;5269;51.146;16.986;2023-04-06T11:04:20;7.00;1.00
10443;DHT22;5269;51.146;16.986;2023-04-06T11:06:47;7.20;1.00
10443;DHT22;5269;51.146;16.986;2023-04-06T11:09:24;6.70;1.00
10443;DHT22;5269;51.146;16.986;2023-04-06T11:11:52;7.10;1.00
10443;DHT22;5269;51.146;16.986;2023-04-06T11:38:34;7.60;1.00
10443;DHT22;5269;51.146;16.986;2023-04-06T11:41:05;7.90;1.00
10443;DHT22;5269;51.146;16.986;2023-04-06T11:43:32;7.70;1.00
10443;DHT22;5269;51.146;16.986;2023-04-06T11:46:01;7.60;1.00
10443;DHT22;5269;51.146;16.986;2023-04-06T11:48:29;7.70;1.00
10443;DHT22;5269;51.146;16.986;2023-04-06T11:50:56;7.70;1.00
10443;DHT22;5269;51.146;16.986;2023-04-06T11:53:24;7.80;1.00
10443;DHT22;5269;51.146;16.986;2023-04-06T11:55:53;7.70;1.00
10443;DHT22;5269;51.146;16.986;2023-04-06T11:58:22;7.30;1.00
10443;DHT22;5269;51.146;16.986;2023-04-06T12:00:49;7.40;1.00
10443;DHT22;5269;51.146;16.986;2023-04-06T12:03:16;7.30;1.00
10443;DHT22;5269;51.146;16.986;2023-04-06T12:05:44;7.10;1.00
10443;DHT22;5269;51.146;16.986;2023-04-06T12:08:14;7.40;1.00
10443;DHT22;5269;51.146;16.986;2023-04-06T12:10:41;7.50;1.00
10443;DHT22;5269;51.146;16.986;2023-04-06T12:13:09;7.80;1.00
10443;DHT22;5269;51.146;16.986;2023-04-06T12:15:39;8.00;1.00
10443;DHT22;5269;51.146;16.986;2023-04-06T12:18:06;8.00;1.00
10443;DHT22;5269;51.146;16.986;2023-04-06T12:20:33;7.60;1.00
10443;DHT22;5269;51.146;16.986;2023-04-06T12:23:00;7.80;1.00
10443;DHT22;5269;51.146;16.986;2023-04-06T12:25:27;8.10;1.00
10443;DHT22;5269;51.146;16.986;2023-04-06T12:27:54;8.20;1.00
10443;DHT22;5269;51.146;16.986;2023-04-06T12:30:23;8.20;1.00
10443;DHT22;5269;51.146;16.986;2023-04-06T12:32:50;8.20;1.00
10443;DHT22;5269;51.146;16.986;2023-04-06T12:35:17;8.30;1.00
10443;DHT22;5269;51.146;16.986;2023-04-06T12:37:44;8.50;1.00
10443;DHT22;5269;51.146;16.986;2023-04-06T12:40:11;8.50;1.00
10443;DHT22;5269;51.146;16.986;2023-04-06T12:42:40;8.10;1.00
10443;DHT22;5269;51.146;16.986;2023-04-06T12:45:10;8.00;1.00
10443;DHT22;5269;51.146;16.986;2023-04-06T12:47:39;8.10;1.00
10443;DHT22;5269;51.146;16.986;2023-04-06T12:50:07;8.20;1.00
10443;DHT22;5269;51.146;16.986;2023-04-06T12:52:34;8.30;1.00
10443;DHT22;5269;51.146;16.986;2023-04-06T12:55:02;8.30;1.00
10443;DHT22;5269;51.146;16.986;2023-04-06T12:57:30;8.20;1.00
10443;DHT22;5269;51.146;16.986;2023-04-06T12:59:57;8.10;1.00
10443;DHT22;5269;51.146;16.986;2023-04-06T13:02:24;8.00;1.00
10443;DHT22;5269;51.146;16.986;2023-04-06T13:04:53;8.20;1.00
10443;DHT22;5269;51.146;16.986;2023-04-06T13:07:19;8.30;1.00
10443;DHT22;5269;51.146;16.986;2023-04-06T13:09:47;8.40;1.00
10443;DHT22;5269;51.146;16.986;2023-04-06T13:12:15;8.50;1.00
10443;DHT22;5269;51.146;16.986;2023-04-06T13:14:42;8.60;1.00
10443;DHT22;5269;51.146;16.986;2023-04-06T13:17:09;8.60;1.00
10443;DHT22;5269;51.146;16.986;2023-04-06T13:19:36;8.60;1.00
10443;DHT22;5269;51.146;16.986;2023-04-06T13:22:04;8.40;1.00
10443;DHT22;5269;51.146;16.986;2023-04-06T13:24:31;8.30;1.00
10443;DHT22;5269;51.146;16.986;2023-04-06T13:27:00;8.20;1.00
10443;DHT22;5269;51.146;16.986;2023-04-06T13:29:28;8.20;1.00
10443;DHT22;5269;51.146;16.986;2023-04-06T13:31:55;8.40;1.00
10443;DHT22;5269;51.146;16.986;2023-04-06T13:34:22;8.50;1.00
10443;DHT22;5269;51.146;16.986;2023-04-06T13:36:49;8.70;1.00
10443;DHT22;5269;51.146;16.986;2023-04-06T13:39:18;8.50;1.00
10443;DHT22;5269;51.146;16.986;2023-04-06T13:41:45;8.60;1.00
10443;DHT22;5269;51.146;16.986;2023-04-06T13:44:12;8.60;1.00
10443;DHT22;5269;51.146;16.986;2023-04-06T13:46:39;8.70;1.00
10443;DHT22;5269;51.146;16.986;2023-04-06T13:49:06;8.80;1.00
10443;DHT22;5269;51.146;16.986;2023-04-06T13:51:33;8.80;1.00
10443;DHT22;5269;51.146;16.986;2023-04-06T13:54:00;8.90;1.00
10443;DHT22;5269;51.146;16.986;2023-04-06T13:56:29;8.80;1.00
10443;DHT22;5269;51.146;16.986;2023-04-06T13:58:56;8.90;1.00
10443;DHT22;5269;51.146;16.986;2023-04-06T14:01:23;8.90;1.00
10443;DHT22;5269;51.146;16.986;2023-04-06T14:03:52;9.10;1.00
10443;DHT22;5269;51.146;16.986;2023-04-06T14:06:19;9.10;1.00
10443;DHT22;5269;51.146;16.986;2023-04-06T14:08:46;8.90;1.00
10443;DHT22;5269;51.146;16.986;2023-04-06T14:11:13;9.00;1.00
10443;DHT22;5269;51.146;16.986;2023-04-06T14:13:42;9.10;1.00
10443;DHT22;5269;51.146;16.986;2023-04-06T14:16:08;9.10;1.00
10443;DHT22;5269;51.146;16.986;2023-04-06T14:18:36;9.00;1.00
10443;DHT22;5269;51.146;16.986;2023-04-06T14:21:04;9.00;1.00
10443;DHT22;5269;51.146;16.986;2023-04-06T14:23:31;9.20;1.00
10443;DHT22;5269;51.146;16.986;2023-04-06T14:26:02;9.50;1.00
10443;DHT22;5269;51.146;16.986;2023-04-06T14:28:31;9.10;1.00
10443;DHT22;5269;51.146;16.986;2023-04-06T14:31:00;8.50;1.00
10443;DHT22;5269;51.146;16.986;2023-04-06T14:33:29;8.70;1.00
10443;DHT22;5269;51.146;16.986;2023-04-06T14:35:56;9.20;1.00
10443;DHT22;5269;51.146;16.986;2023-04-06T14:38:23;9.30;1.00
10443;DHT22;5269;51.146;16.986;2023-04-06T14:40:50;9.40;1.00
10443;DHT22;5269;51.146;16.986;2023-04-06T14:43:17;9.30;1.00
10443;DHT22;5269;51.146;16.986;2023-04-06T14:45:44;9.40;1.00
10443;DHT22;5269;51.146;16.986;2023-04-06T14:48:12;9.70;1.00
10443;DHT22;5269;51.146;16.986;2023-04-06T14:50:41;9.80;1.00
10443;DHT22;5269;51.146;16.986;2023-04-06T14:53:12;9.90;1.00
10443;DHT22;5269;51.146;16.986;2023-04-06T14:55:39;9.70;1.00
10443;DHT22;5269;51.146;16.986;2023-04-06T14:58:07;9.70;1.00
10443;DHT22;5269;51.146;16.986;2023-04-06T15:00:34;9.70;1.00
10443;DHT22;5269;51.146;16.986;2023-04-06T15:03:01;9.60;1.00
10443;DHT22;5269;51.146;16.986;2023-04-06T15:05:29;9.70;1.00
10443;DHT22;5269;51.146;16.986;2023-04-06T15:07:57;10.00;1.00
10443;DHT22;5269;51.146;16.986;2023-04-06T15:10:24;10.10;1.00
10443;DHT22;5269;51.146;16.986;2023-04-06T15:12:50;10.10;1.00
10443;DHT22;5269;51.146;16.986;2023-04-06T15:15:18;9.80;1.00
10443;DHT22;5269;51.146;16.986;2023-04-06T15:17:45;9.90;1.00
10443;DHT22;5269;51.146;16.986;2023-04-06T15:20:12;9.90;1.00
10443;DHT22;5269;51.146;16.986;2023-04-06T15:22:40;10.10;1.00
10443;DHT22;5269;51.146;16.986;2023-04-06T15:25:07;10.10;1.00
10443;DHT22;5269;51.146;16.986;2023-04-06T15:27:34;10.10;1.00
10443;DHT22;5269;51.146;16.986;2023-04-06T15:30:02;10.00;1.00
10443;DHT22;5269;51.146;16.986;2023-04-06T15:32:29;10.00;1.00
10443;DHT22;5269;51.146;16.986;2023-04-06T15:34:57;10.00;1.00
10443;DHT22;5269;51.146;16.986;2023-04-06T15:37:24;9.90;1.00
10443;DHT22;5269;51.146;16.986;2023-04-06T15:39:52;9.90;1.00
10443;DHT22;5269;51.146;16.986;2023-04-06T15:42:19;9.90;1.00
10443;DHT22;5269;51.146;16.986;2023-04-06T15:44:46;9.70;1.00
10443;DHT22;5269;51.146;16.986;2023-04-06T15:47:13;9.70;1.00
10443;DHT22;5269;51.146;16.986;2023-04-06T15:49:40;9.80;1.00
10443;DHT22;5269;51.146;16.986;2023-04-06T15:52:10;9.90;1.00
10443;DHT22;5269;51.146;16.986;2023-04-06T15:54:37;9.90;1.00
10443;DHT22;5269;51.146;16.986;2023-04-06T15:57:07;10.10;1.00
10443;DHT22;5269;51.146;16.986;2023-04-06T15:59:37;10.10;1.00
10443;DHT22;5269;51.146;16.986;2023-04-06T16:02:04;9.80;1.00
10443;DHT22;5269;51.146;16.986;2023-04-06T16:04:31;10.00;1.00
10443;DHT22;5269;51.146;16.986;2023-04-06T16:06:58;9.80;1.00
10443;DHT22;5269;51.146;16.986;2023-04-06T16:09:25;9.90;1.00
10443;DHT22;5269;51.146;16.986;2023-04-06T16:11:52;9.80;1.00
10443;DHT22;5269;51.146;16.986;2023-04-06T16:14:21;9.80;1.00
10443;DHT22;5269;51.146;16.986;2023-04-06T16:16:47;9.60;1.00
10443;DHT22;5269;51.146;16.986;2023-04-06T16:19:15;9.50;1.00
10443;DHT22;5269;51.146;16.986;2023-04-06T16:21:42;9.40;1.00
10443;DHT22;5269;51.146;16.986;2023-04-06T16:24:09;9.30;1.00
10443;DHT22;5269;51.146;16.986;2023-04-06T16:26:37;9.00;1.00
10443;DHT22;5269;51.146;16.986;2023-04-06T16:29:04;9.00;1.00
10443;DHT22;5269;51.146;16.986;2023-04-06T16:31:33;8.90;1.00
10443;DHT22;5269;51.146;16.986;2023-04-06T16:34:01;8.70;1.00
10443;DHT22;5269;51.146;16.986;2023-04-06T16:36:30;8.50;1.00
10443;DHT22;5269;51.146;16.986;2023-04-06T16:38:59;8.50;1.00
10443;DHT22;5269;51.146;16.986;2023-04-06T16:41:27;8.50;1.00
10443;DHT22;5269;51.146;16.986;2023-04-06T16:43:54;8.50;1.00
10443;DHT22;5269;51.146;16.986;2023-04-06T16:46:27;8.50;1.00
10443;DHT22;5269;51.146;16.986;2023-04-06T16:48:56;8.40;1.00
10443;DHT22;5269;51.146;16.986;2023-04-06T16:51:23;8.30;1.00
10443;DHT22;5269;51.146;16.986;2023-04-06T16:53:52;8.30;1.00
10443;DHT22;5269;51.146;16.986;2023-04-06T16:56:19;8.20;1.00
10443;DHT22;5269;51.146;16.986;2023-04-06T16:58:46;8.00;1.00
10443;DHT22;5269;51.146;16.986;2023-04-06T17:01:17;8.00;1.00
10443;DHT22;5269;51.146;16.986;2023-04-06T17:03:45;8.00;1.00
10443;DHT22;5269;51.146;16.986;2023-04-06T17:06:13;8.00;1.00
10443;DHT22;5269;51.146;16.986;2023-04-06T17:08:47;7.90;1.00
10443;DHT22;5269;51.146;16.986;2023-04-06T17:11:18;7.80;1.00
10443;DHT22;5269;51.146;16.986;2023-04-06T17:13:48;7.80;1.00
10443;DHT22;5269;51.146;16.986;2023-04-06T17:16:15;7.70;1.00
10443;DHT22;5269;51.146;16.986;2023-04-06T17:18:42;7.60;1.00
10443;DHT22;5269;51.146;16.986;2023-04-06T17:21:09;7.60;1.00
10443;DHT22;5269;51.146;16.986;2023-04-06T17:23:40;7.60;1.00
10443;DHT22;5269;51.146;16.986;2023-04-06T17:26:07;7.50;1.00
10443;DHT22;5269;51.146;16.986;2023-04-06T17:28:35;7.50;1.00
10443;DHT22;5269;51.146;16.986;2023-04-06T17:31:06;7.50;1.00
10443;DHT22;5269;51.146;16.986;2023-04-06T17:33:34;7.40;1.00
10443;DHT22;5269;51.146;16.986;2023-04-06T17:36:01;7.30;1.00
10443;DHT22;5269;51.146;16.986;2023-04-06T17:38:28;7.30;1.00